createdAt,value
2018-12-20T00:00:50.728Z,1011.84
2018-12-20T00:01:49.952Z,1011.85
2018-12-20T00:02:50.699Z,1011.86
2018-12-20T00:03:49.822Z,1011.84
2018-12-20T00:04:50.659Z,1011.84
2018-12-20T00:05:49.933Z,1011.85
2018-12-20T00:06:49.845Z,1011.81
2018-12-20T00:07:49.792Z,1011.83
2018-12-20T00:08:49.659Z,1011.79
2018-12-20T00:09:49.693Z,1011.80
2018-12-20T00:10:49.578Z,1011.80
2018-12-20T00:11:49.723Z,1011.79
2018-12-20T00:12:50.383Z,1011.80
2018-12-20T00:13:49.664Z,1011.78
2018-12-20T00:14:49.476Z,1011.77
2018-12-20T00:15:50.206Z,1011.81
2018-12-20T00:16:50.228Z,1011.79
2018-12-20T00:17:49.375Z,1011.80
2018-12-20T00:18:49.771Z,1011.80
2018-12-20T00:19:50.218Z,1011.81
2018-12-20T00:20:49.292Z,1011.81
2018-12-20T00:21:50.288Z,1011.84
2018-12-20T00:22:50.218Z,1011.87
2018-12-20T00:23:49.704Z,1011.84
2018-12-20T00:24:49.781Z,1011.88
2018-12-20T00:25:49.183Z,1011.89
2018-12-20T00:26:49.049Z,1011.90
2018-12-20T00:27:49.075Z,1011.92
2018-12-20T00:28:49.052Z,1011.91
2018-12-20T00:29:48.954Z,1011.96
2018-12-20T00:30:49.035Z,1011.94
2018-12-20T00:31:48.891Z,1011.97
2018-12-20T00:32:48.850Z,1011.95
2018-12-20T00:33:48.869Z,1011.97
2018-12-20T00:34:49.753Z,1011.95
2018-12-20T00:35:49.275Z,1011.96
2018-12-20T00:36:50.106Z,1011.98
2018-12-20T00:37:49.792Z,1011.97
2018-12-20T00:38:49.690Z,1012.01
2018-12-20T00:39:49.218Z,1012.01
2018-12-20T00:40:48.641Z,1012.00
2018-12-20T00:41:48.536Z,1012.00
2018-12-20T00:42:48.698Z,1011.98
2018-12-20T00:43:48.476Z,1011.99
2018-12-20T00:44:48.598Z,1011.97
2018-12-20T00:45:49.310Z,1011.97
2018-12-20T00:46:48.492Z,1011.91
2018-12-20T00:47:48.434Z,1011.96
2018-12-20T00:48:48.464Z,1011.98
2018-12-20T00:49:48.303Z,1012.00
2018-12-20T00:50:49.270Z,1012.01
2018-12-20T00:51:48.216Z,1012.01
2018-12-20T00:52:48.258Z,1012.03
2018-12-20T00:53:48.183Z,1011.99
2018-12-20T00:54:48.748Z,1012.03
2018-12-20T00:55:48.194Z,1012.00
2018-12-20T00:56:48.118Z,1011.98
2018-12-20T00:57:48.072Z,1011.97
2018-12-20T00:58:47.974Z,1011.96
2018-12-20T00:59:48.729Z,1012.00
2018-12-20T01:00:48.055Z,1011.96
2018-12-20T01:01:47.966Z,1011.96
2018-12-20T01:02:55.068Z,1011.94
2018-12-20T01:03:47.902Z,1011.94
2018-12-20T01:04:47.812Z,1011.94
2018-12-20T01:05:48.769Z,1011.92
2018-12-20T01:06:47.710Z,1011.93
2018-12-20T01:07:47.868Z,1011.96
2018-12-20T01:08:47.694Z,1012.00
2018-12-20T01:09:47.627Z,1011.95
2018-12-20T01:10:47.648Z,1012.02
2018-12-20T01:11:47.608Z,1011.96
2018-12-20T01:12:48.124Z,1011.99
2018-12-20T01:13:47.569Z,1011.98
2018-12-20T01:14:47.453Z,1011.96
2018-12-20T01:15:48.240Z,1011.98
2018-12-20T01:16:47.445Z,1011.98
2018-12-20T01:17:47.373Z,1012.00
2018-12-20T01:18:47.831Z,1012.01
2018-12-20T01:19:48.225Z,1011.99
2018-12-20T01:20:47.322Z,1012.02
2018-12-20T01:21:47.214Z,1012.01
2018-12-20T01:22:47.922Z,1012.06
2018-12-20T01:23:47.284Z,1012.11
2018-12-20T01:24:47.706Z,1012.08
2018-12-20T01:25:47.196Z,1012.07
2018-12-20T01:26:47.034Z,1012.08
2018-12-20T01:27:47.693Z,1012.04
2018-12-20T01:28:47.247Z,1012.03
2018-12-20T01:29:47.268Z,1012.00
2018-12-20T01:30:47.819Z,1012.04
2018-12-20T01:31:46.884Z,1012.03
2018-12-20T01:32:47.700Z,1012.01
2018-12-20T01:33:47.047Z,1012.03
2018-12-20T01:34:47.387Z,1011.97
2018-12-20T01:35:46.916Z,1012.00
2018-12-20T01:36:46.788Z,1012.02
2018-12-20T01:37:47.209Z,1012.02
2018-12-20T01:38:46.747Z,1012.01
2018-12-20T01:39:46.765Z,1012.02
2018-12-20T01:40:46.724Z,1012.05
2018-12-20T01:41:47.193Z,1012.01
2018-12-20T01:42:46.574Z,1012.02
2018-12-20T01:43:46.581Z,1012.04
2018-12-20T01:44:53.531Z,1012.04
2018-12-20T01:45:46.455Z,1012.06
2018-12-20T01:46:47.181Z,1012.05
2018-12-20T01:47:46.489Z,1012.06
2018-12-20T01:48:47.183Z,1012.04
2018-12-20T01:49:46.433Z,1012.05
2018-12-20T01:50:46.291Z,1012.05
2018-12-20T01:51:47.370Z,1012.07
2018-12-20T01:52:46.205Z,1012.06
2018-12-20T01:53:46.334Z,1012.08
2018-12-20T01:54:46.689Z,1012.07
2018-12-20T01:55:46.183Z,1012.09
2018-12-20T01:56:46.739Z,1012.08
2018-12-20T01:57:46.006Z,1012.11
2018-12-20T01:58:46.244Z,1012.04
2018-12-20T01:59:46.939Z,1012.04
2018-12-20T02:00:46.769Z,1012.06
2018-12-20T02:01:46.742Z,1012.07
2018-12-20T02:02:46.901Z,1012.04
2018-12-20T02:03:46.253Z,1012.05
2018-12-20T02:04:46.682Z,1012.04
2018-12-20T02:05:46.890Z,1012.03
2018-12-20T02:06:46.415Z,1012.07
2018-12-20T02:07:45.674Z,1012.06
2018-12-20T02:08:45.715Z,1012.02
2018-12-20T02:09:45.639Z,1012.03
2018-12-20T02:10:45.563Z,1011.99
2018-12-20T02:11:45.854Z,1012.00
2018-12-20T02:12:45.668Z,1012.00
2018-12-20T02:13:45.838Z,1011.99
2018-12-20T02:14:45.598Z,1011.97
2018-12-20T02:15:45.442Z,1011.94
2018-12-20T02:16:45.488Z,1011.92
2018-12-20T02:17:45.531Z,1011.97
2018-12-20T02:18:45.324Z,1011.96
2018-12-20T02:19:45.262Z,1011.94
2018-12-20T02:20:45.409Z,1011.97
2018-12-20T02:21:45.198Z,1011.93
2018-12-20T02:22:45.347Z,1011.94
2018-12-20T02:23:45.145Z,1011.91
2018-12-20T02:24:45.094Z,1011.87
2018-12-20T02:25:45.231Z,1011.87
2018-12-20T02:26:45.027Z,1011.84
2018-12-20T02:27:44.999Z,1011.82
2018-12-20T02:28:45.163Z,1011.82
2018-12-20T02:29:45.703Z,1011.83
2018-12-20T02:30:45.271Z,1011.81
2018-12-20T02:31:45.014Z,1011.78
2018-12-20T02:32:45.080Z,1011.80
2018-12-20T02:33:45.095Z,1011.82
2018-12-20T02:34:44.820Z,1011.78
2018-12-20T02:35:44.740Z,1011.80
2018-12-20T02:36:44.736Z,1011.81
2018-12-20T02:37:44.820Z,1011.79
2018-12-20T02:38:44.663Z,1011.80
2018-12-20T02:39:44.761Z,1011.77
2018-12-20T02:40:44.710Z,1011.76
2018-12-20T02:41:44.550Z,1011.79
2018-12-20T02:42:44.516Z,1011.74
2018-12-20T02:43:44.473Z,1011.79
2018-12-20T02:44:44.528Z,1011.78
2018-12-20T02:45:44.478Z,1011.82
2018-12-20T02:46:44.590Z,1011.81
2018-12-20T02:47:44.363Z,1011.79
2018-12-20T02:48:44.303Z,1011.82
2018-12-20T02:49:44.440Z,1011.79
2018-12-20T02:50:44.288Z,1011.73
2018-12-20T02:51:44.807Z,1011.76
2018-12-20T02:52:44.303Z,1011.72
2018-12-20T02:53:44.126Z,1011.76
2018-12-20T02:54:44.363Z,1011.78
2018-12-20T02:55:44.195Z,1011.76
2018-12-20T02:56:44.301Z,1011.79
2018-12-20T02:57:44.485Z,1011.77
2018-12-20T02:58:44.311Z,1011.77
2018-12-20T02:59:43.933Z,1011.75
2018-12-20T03:00:43.903Z,1011.76
2018-12-20T03:01:44.912Z,1011.76
2018-12-20T03:02:43.949Z,1011.77
2018-12-20T03:03:43.808Z,1011.75
2018-12-20T03:04:43.776Z,1011.73
2018-12-20T03:05:43.826Z,1011.74
2018-12-20T03:06:43.693Z,1011.74
2018-12-20T03:07:46.806Z,1011.72
2018-12-20T03:08:43.857Z,1011.72
2018-12-20T03:09:43.599Z,1011.73
2018-12-20T03:10:43.566Z,1011.73
2018-12-20T03:11:43.552Z,1011.69
2018-12-20T03:12:43.601Z,1011.71
2018-12-20T03:13:43.619Z,1011.63
2018-12-20T03:14:43.667Z,1011.65
2018-12-20T03:15:44.207Z,1011.65
2018-12-20T03:16:43.600Z,1011.62
2018-12-20T03:17:43.552Z,1011.62
2018-12-20T03:18:43.383Z,1011.57
2018-12-20T03:19:43.823Z,1011.54
2018-12-20T03:20:44.234Z,1011.54
2018-12-20T03:21:44.259Z,1011.55
2018-12-20T03:22:43.159Z,1011.51
2018-12-20T03:23:43.738Z,1011.52
2018-12-20T03:24:43.259Z,1011.49
2018-12-20T03:25:43.828Z,1011.54
2018-12-20T03:26:43.254Z,1011.48
2018-12-20T03:27:43.865Z,1011.51
2018-12-20T03:28:43.238Z,1011.54
2018-12-20T03:29:42.972Z,1011.53
2018-12-20T03:30:42.894Z,1011.57
2018-12-20T03:31:42.860Z,1011.54
2018-12-20T03:32:42.942Z,1011.59
2018-12-20T03:33:43.995Z,1011.58
2018-12-20T03:34:42.837Z,1011.52
2018-12-20T03:35:42.784Z,1011.53
2018-12-20T03:36:42.872Z,1011.52
2018-12-20T03:37:42.997Z,1011.55
2018-12-20T03:38:43.402Z,1011.55
2018-12-20T03:39:42.807Z,1011.57
2018-12-20T03:40:43.240Z,1011.56
2018-12-20T03:41:42.746Z,1011.57
2018-12-20T03:42:42.537Z,1011.53
2018-12-20T03:43:43.253Z,1011.52
2018-12-20T03:44:42.955Z,1011.52
2018-12-20T03:45:42.673Z,1011.53
2018-12-20T03:46:43.214Z,1011.51
2018-12-20T03:47:43.273Z,1011.53
2018-12-20T03:48:42.456Z,1011.55
2018-12-20T03:49:42.763Z,1011.56
2018-12-20T03:50:43.277Z,1011.56
2018-12-20T03:51:43.504Z,1011.56
2018-12-20T03:52:42.438Z,1011.51
2018-12-20T03:53:42.210Z,1011.49
2018-12-20T03:54:42.287Z,1011.47
2018-12-20T03:55:42.423Z,1011.46
2018-12-20T03:56:42.780Z,1011.48
2018-12-20T03:57:42.025Z,1011.48
2018-12-20T03:58:42.685Z,1011.51
2018-12-20T03:59:42.591Z,1011.51
2018-12-20T04:00:41.908Z,1011.48
2018-12-20T04:01:42.700Z,1011.53
2018-12-20T04:02:42.015Z,1011.53
2018-12-20T04:03:42.684Z,1011.54
2018-12-20T04:04:41.797Z,1011.53
2018-12-20T04:05:43.146Z,1011.52
2018-12-20T04:06:41.833Z,1011.50
2018-12-20T04:07:41.661Z,1011.47
2018-12-20T04:08:42.186Z,1011.48
2018-12-20T04:09:42.244Z,1011.50
2018-12-20T04:10:41.743Z,1011.51
2018-12-20T04:11:42.194Z,1011.46
2018-12-20T04:12:41.612Z,1011.50
2018-12-20T04:13:41.480Z,1011.48
2018-12-20T04:14:41.432Z,1011.47
2018-12-20T04:15:41.439Z,1011.40
2018-12-20T04:16:41.362Z,1011.44
2018-12-20T04:17:42.437Z,1011.48
2018-12-20T04:18:41.475Z,1011.46
2018-12-20T04:19:46.597Z,1011.46
2018-12-20T04:20:41.465Z,1011.47
2018-12-20T04:21:41.353Z,1011.50
2018-12-20T04:22:41.328Z,1011.47
2018-12-20T04:23:41.896Z,1011.49
2018-12-20T04:24:41.222Z,1011.45
2018-12-20T04:25:41.770Z,1011.48
2018-12-20T04:26:41.406Z,1011.48
2018-12-20T04:27:49.914Z,1011.51
2018-12-20T04:28:40.954Z,1011.51
2018-12-20T04:29:41.159Z,1011.54
2018-12-20T04:30:40.946Z,1011.57
2018-12-20T04:31:40.925Z,1011.54
2018-12-20T04:32:41.720Z,1011.52
2018-12-20T04:33:41.213Z,1011.55
2018-12-20T04:34:41.705Z,1011.50
2018-12-20T04:35:40.759Z,1011.55
2018-12-20T04:36:40.686Z,1011.50
2018-12-20T04:37:40.691Z,1011.51
2018-12-20T04:38:40.707Z,1011.47
2018-12-20T04:39:40.679Z,1011.49
2018-12-20T04:40:40.550Z,1011.50
2018-12-20T04:41:40.521Z,1011.52
2018-12-20T04:42:40.628Z,1011.51
2018-12-20T04:43:40.738Z,1011.52
2018-12-20T04:44:40.417Z,1011.50
2018-12-20T04:45:46.666Z,1011.49
2018-12-20T04:46:40.346Z,1011.50
2018-12-20T04:47:40.398Z,1011.53
2018-12-20T04:48:40.426Z,1011.52
2018-12-20T04:49:40.277Z,1011.53
2018-12-20T04:50:40.217Z,1011.52
2018-12-20T04:51:40.304Z,1011.54
2018-12-20T04:52:40.275Z,1011.55
2018-12-20T04:53:40.304Z,1011.54
2018-12-20T04:54:40.707Z,1011.57
2018-12-20T04:55:40.747Z,1011.52
2018-12-20T04:56:40.042Z,1011.47
2018-12-20T04:57:40.114Z,1011.46
2018-12-20T04:58:40.296Z,1011.47
2018-12-20T04:59:40.861Z,1011.48
2018-12-20T05:00:40.765Z,1011.45
2018-12-20T05:01:40.821Z,1011.46
2018-12-20T05:02:40.751Z,1011.41
2018-12-20T05:03:40.312Z,1011.40
2018-12-20T05:04:39.742Z,1011.40
2018-12-20T05:05:39.708Z,1011.41
2018-12-20T05:06:40.233Z,1011.41
2018-12-20T05:07:39.644Z,1011.41
2018-12-20T05:08:39.833Z,1011.43
2018-12-20T05:09:40.211Z,1011.43
2018-12-20T05:10:40.210Z,1011.40
2018-12-20T05:11:40.428Z,1011.39
2018-12-20T05:12:40.455Z,1011.37
2018-12-20T05:13:39.769Z,1011.37
2018-12-20T05:14:39.902Z,1011.38
2018-12-20T05:15:39.378Z,1011.36
2018-12-20T05:16:39.403Z,1011.37
2018-12-20T05:17:39.309Z,1011.36
2018-12-20T05:18:39.355Z,1011.34
2018-12-20T05:19:39.597Z,1011.34
2018-12-20T05:20:39.281Z,1011.33
2018-12-20T05:21:39.218Z,1011.33
2018-12-20T05:22:39.361Z,1011.34
2018-12-20T05:23:39.115Z,1011.34
2018-12-20T05:24:39.151Z,1011.36
2018-12-20T05:25:39.095Z,1011.35
2018-12-20T05:26:39.022Z,1011.38
2018-12-20T05:27:39.264Z,1011.41
2018-12-20T05:28:38.945Z,1011.39
2018-12-20T05:29:39.734Z,1011.39
2018-12-20T05:30:38.924Z,1011.40
2018-12-20T05:31:39.026Z,1011.43
2018-12-20T05:32:38.860Z,1011.40
2018-12-20T05:33:39.806Z,1011.43
2018-12-20T05:34:38.751Z,1011.43
2018-12-20T05:35:38.904Z,1011.46
2018-12-20T05:36:38.678Z,1011.42
2018-12-20T05:37:39.328Z,1011.42
2018-12-20T05:38:38.711Z,1011.42
2018-12-20T05:39:39.251Z,1011.47
2018-12-20T05:40:38.601Z,1011.44
2018-12-20T05:41:38.687Z,1011.47
2018-12-20T05:42:39.263Z,1011.46
2018-12-20T05:43:38.441Z,1011.43
2018-12-20T05:44:38.746Z,1011.40
2018-12-20T05:45:38.439Z,1011.42
2018-12-20T05:46:39.217Z,1011.42
2018-12-20T05:47:39.214Z,1011.34
2018-12-20T05:48:38.766Z,1011.39
2018-12-20T05:49:38.408Z,1011.34
2018-12-20T05:50:38.267Z,1011.36
2018-12-20T05:51:38.713Z,1011.32
2018-12-20T05:52:38.138Z,1011.33
2018-12-20T05:53:38.114Z,1011.32
2018-12-20T05:54:38.367Z,1011.33
2018-12-20T05:55:38.918Z,1011.33
2018-12-20T05:56:38.913Z,1011.33
2018-12-20T05:57:37.999Z,1011.36
2018-12-20T05:58:38.204Z,1011.34
2018-12-20T05:59:38.797Z,1011.30
2018-12-20T06:00:38.799Z,1011.27
2018-12-20T06:01:38.878Z,1011.28
2018-12-20T06:02:38.339Z,1011.28
2018-12-20T06:03:37.773Z,1011.28
2018-12-20T06:04:37.749Z,1011.27
2018-12-20T06:05:37.911Z,1011.23
2018-12-20T06:06:38.019Z,1011.23
2018-12-20T06:07:37.783Z,1011.24
2018-12-20T06:08:37.603Z,1011.23
2018-12-20T06:09:37.889Z,1011.21
2018-12-20T06:10:37.558Z,1011.23
2018-12-20T06:11:37.794Z,1011.16
2018-12-20T06:12:37.738Z,1011.20
2018-12-20T06:13:37.476Z,1011.17
2018-12-20T06:14:37.471Z,1011.17
2018-12-20T06:15:37.604Z,1011.14
2018-12-20T06:16:37.332Z,1011.12
2018-12-20T06:17:37.445Z,1011.19
2018-12-20T06:18:37.267Z,1011.12
2018-12-20T06:19:37.237Z,1011.12
2018-12-20T06:20:37.309Z,1011.13
2018-12-20T06:21:37.165Z,1011.14
2018-12-20T06:22:37.152Z,1011.18
2018-12-20T06:23:37.104Z,1011.17
2018-12-20T06:24:37.080Z,1011.18
2018-12-20T06:25:37.181Z,1011.19
2018-12-20T06:26:36.995Z,1011.17
2018-12-20T06:27:36.981Z,1011.16
2018-12-20T06:28:36.937Z,1011.19
2018-12-20T06:29:36.895Z,1011.21
2018-12-20T06:30:36.932Z,1011.19
2018-12-20T06:31:36.820Z,1011.21
2018-12-20T06:32:37.750Z,1011.23
2018-12-20T06:33:36.758Z,1011.26
2018-12-20T06:34:36.723Z,1011.27
2018-12-20T06:35:36.742Z,1011.31
2018-12-20T06:36:36.652Z,1011.31
2018-12-20T06:37:36.618Z,1011.33
2018-12-20T06:38:37.220Z,1011.30
2018-12-20T06:39:36.559Z,1011.27
2018-12-20T06:40:36.669Z,1011.30
2018-12-20T06:41:36.485Z,1011.26
2018-12-20T06:42:37.220Z,1011.29
2018-12-20T06:43:36.449Z,1011.22
2018-12-20T06:44:36.388Z,1011.22
2018-12-20T06:45:36.388Z,1011.23
2018-12-20T06:46:36.317Z,1011.25
2018-12-20T06:47:36.289Z,1011.24
2018-12-20T06:48:36.309Z,1011.29
2018-12-20T06:49:36.215Z,1011.24
2018-12-20T06:50:36.175Z,1011.29
2018-12-20T06:51:36.189Z,1011.25
2018-12-20T06:52:36.112Z,1011.27
2018-12-20T06:53:36.082Z,1011.27
2018-12-20T06:54:36.047Z,1011.27
2018-12-20T06:55:36.007Z,1011.28
2018-12-20T06:56:36.015Z,1011.28
2018-12-20T06:57:35.942Z,1011.25
2018-12-20T06:58:35.942Z,1011.27
2018-12-20T06:59:35.871Z,1011.29
2018-12-20T07:00:35.884Z,1011.33
2018-12-20T07:01:35.803Z,1011.33
2018-12-20T07:02:35.810Z,1011.35
2018-12-20T07:03:35.770Z,1011.39
2018-12-20T07:04:35.697Z,1011.35
2018-12-20T07:05:35.710Z,1011.37
2018-12-20T07:06:35.634Z,1011.39
2018-12-20T07:07:35.641Z,1011.40
2018-12-20T07:08:35.563Z,1011.38
2018-12-20T07:09:35.531Z,1011.33
2018-12-20T07:10:35.647Z,1011.38
2018-12-20T07:11:35.463Z,1011.36
2018-12-20T07:12:35.478Z,1011.33
2018-12-20T07:13:35.391Z,1011.42
2018-12-20T07:14:35.354Z,1011.43
2018-12-20T07:15:35.327Z,1011.40
2018-12-20T07:16:35.289Z,1011.38
2018-12-20T07:17:35.306Z,1011.37
2018-12-20T07:18:35.223Z,1011.34
2018-12-20T07:19:35.184Z,1011.33
2018-12-20T07:20:35.149Z,1011.37
2018-12-20T07:21:35.114Z,1011.40
2018-12-20T07:22:35.126Z,1011.38
2018-12-20T07:23:35.056Z,1011.40
2018-12-20T07:24:35.056Z,1011.44
2018-12-20T07:25:34.977Z,1011.41
2018-12-20T07:26:34.941Z,1011.46
2018-12-20T07:27:36.275Z,1011.42
2018-12-20T07:28:34.877Z,1011.40
2018-12-20T07:29:34.893Z,1011.44
2018-12-20T07:30:35.722Z,1011.43
2018-12-20T07:31:34.781Z,1011.42
2018-12-20T07:32:34.735Z,1011.45
2018-12-20T07:33:34.707Z,1011.47
2018-12-20T07:34:34.714Z,1011.50
2018-12-20T07:35:34.637Z,1011.55
2018-12-20T07:36:34.597Z,1011.47
2018-12-20T07:37:34.565Z,1011.48
2018-12-20T07:38:34.530Z,1011.49
2018-12-20T07:39:34.833Z,1011.47
2018-12-20T07:40:34.507Z,1011.47
2018-12-20T07:41:34.496Z,1011.46
2018-12-20T07:42:34.397Z,1011.44
2018-12-20T07:43:34.377Z,1011.42
2018-12-20T07:44:34.328Z,1011.42
2018-12-20T07:45:34.294Z,1011.38
2018-12-20T07:46:37.929Z,1011.43
2018-12-20T07:47:34.225Z,1011.40
2018-12-20T07:48:34.194Z,1011.41
2018-12-20T07:49:34.157Z,1011.41
2018-12-20T07:50:34.167Z,1011.45
2018-12-20T07:51:34.102Z,1011.46
2018-12-20T07:52:34.205Z,1011.47
2018-12-20T07:53:34.021Z,1011.46
2018-12-20T07:54:33.988Z,1011.47
2018-12-20T07:55:33.950Z,1011.48
2018-12-20T07:56:33.914Z,1011.45
2018-12-20T07:57:33.922Z,1011.45
2018-12-20T07:58:33.908Z,1011.40
2018-12-20T07:59:33.818Z,1011.46
2018-12-20T08:00:33.812Z,1011.46
2018-12-20T08:01:33.745Z,1011.45
2018-12-20T08:02:33.712Z,1011.45
2018-12-20T08:03:33.725Z,1011.44
2018-12-20T08:04:33.641Z,1011.44
2018-12-20T08:05:33.610Z,1011.44
2018-12-20T08:06:33.619Z,1011.47
2018-12-20T08:07:33.547Z,1011.46
2018-12-20T08:08:33.503Z,1011.51
2018-12-20T08:09:33.479Z,1011.49
2018-12-20T08:10:33.438Z,1011.47
2018-12-20T08:11:33.448Z,1011.51
2018-12-20T08:12:33.421Z,1011.46
2018-12-20T08:13:33.414Z,1011.51
2018-12-20T08:14:33.302Z,1011.53
2018-12-20T08:15:33.275Z,1011.51
2018-12-20T08:16:33.237Z,1011.50
2018-12-20T08:17:33.238Z,1011.52
2018-12-20T08:18:33.171Z,1011.58
2018-12-20T08:19:36.472Z,1011.54
2018-12-20T08:20:33.100Z,1011.51
2018-12-20T08:21:33.114Z,1011.52
2018-12-20T08:22:33.080Z,1011.52
2018-12-20T08:23:33.002Z,1011.48
2018-12-20T08:24:32.961Z,1011.47
2018-12-20T08:25:32.931Z,1011.47
2018-12-20T08:26:32.894Z,1011.48
2018-12-20T08:27:32.905Z,1011.49
2018-12-20T08:28:32.867Z,1011.53
2018-12-20T08:29:33.786Z,1011.50
2018-12-20T08:30:32.808Z,1011.53
2018-12-20T08:31:32.729Z,1011.57
2018-12-20T08:32:32.695Z,1011.54
2018-12-20T08:33:32.719Z,1011.57
2018-12-20T08:34:32.627Z,1011.58
2018-12-20T08:35:32.594Z,1011.59
2018-12-20T08:36:32.562Z,1011.59
2018-12-20T08:37:32.570Z,1011.55
2018-12-20T08:38:32.496Z,1011.56
2018-12-20T08:39:32.498Z,1011.59
2018-12-20T08:40:32.424Z,1011.57
2018-12-20T08:41:32.401Z,1011.55
2018-12-20T08:42:32.363Z,1011.57
2018-12-20T08:43:32.377Z,1011.59
2018-12-20T08:44:33.230Z,1011.59
2018-12-20T08:45:32.259Z,1011.61
2018-12-20T08:46:32.737Z,1011.63
2018-12-20T08:47:32.198Z,1011.65
2018-12-20T08:48:32.207Z,1011.66
2018-12-20T08:49:32.736Z,1011.70
2018-12-20T08:50:32.092Z,1011.66
2018-12-20T08:51:32.103Z,1011.70
2018-12-20T08:52:32.279Z,1011.73
2018-12-20T08:53:32.286Z,1011.70
2018-12-20T08:54:32.734Z,1011.69
2018-12-20T08:55:32.735Z,1011.71
2018-12-20T08:56:32.734Z,1011.71
2018-12-20T08:57:31.864Z,1011.70
2018-12-20T08:58:31.874Z,1011.73
2018-12-20T08:59:31.793Z,1011.76
2018-12-20T09:00:32.801Z,1011.71
2018-12-20T09:01:31.788Z,1011.74
2018-12-20T09:02:31.697Z,1011.75
2018-12-20T09:03:31.678Z,1011.74
2018-12-20T09:04:31.676Z,1011.75
2018-12-20T09:05:31.627Z,1011.72
2018-12-20T09:06:31.585Z,1011.76
2018-12-20T09:07:31.530Z,1011.76
2018-12-20T09:08:31.498Z,1011.80
2018-12-20T09:09:31.502Z,1011.80
2018-12-20T09:10:31.434Z,1011.82
2018-12-20T09:11:31.447Z,1011.80
2018-12-20T09:12:31.366Z,1011.82
2018-12-20T09:13:31.357Z,1011.82
2018-12-20T09:14:31.344Z,1011.87
2018-12-20T09:15:31.268Z,1011.90
2018-12-20T09:16:31.270Z,1011.84
2018-12-20T09:17:31.246Z,1011.87
2018-12-20T09:18:31.181Z,1011.87
2018-12-20T09:19:31.240Z,1011.86
2018-12-20T09:20:32.888Z,1011.88
2018-12-20T09:21:31.774Z,1011.91
2018-12-20T09:22:31.090Z,1011.91
2018-12-20T09:23:31.011Z,1011.91
2018-12-20T09:24:31.746Z,1011.88
2018-12-20T09:25:30.942Z,1011.86
2018-12-20T09:26:30.952Z,1011.83
2018-12-20T09:27:30.959Z,1011.82
2018-12-20T09:28:30.845Z,1011.83
2018-12-20T09:29:30.818Z,1011.82
2018-12-20T09:30:30.974Z,1011.82
2018-12-20T09:31:30.808Z,1011.82
2018-12-20T09:32:30.718Z,1011.78
2018-12-20T09:33:30.686Z,1011.77
2018-12-20T09:34:30.684Z,1011.80
2018-12-20T09:35:30.622Z,1011.80
2018-12-20T09:36:30.797Z,1011.85
2018-12-20T09:37:30.596Z,1011.85
2018-12-20T09:38:30.569Z,1011.81
2018-12-20T09:39:31.238Z,1011.86
2018-12-20T09:40:30.462Z,1011.84
2018-12-20T09:41:30.476Z,1011.81
2018-12-20T09:42:30.402Z,1011.83
2018-12-20T09:43:30.364Z,1011.81
2018-12-20T09:44:30.340Z,1011.85
2018-12-20T09:45:30.300Z,1011.78
2018-12-20T09:46:30.314Z,1011.79
2018-12-20T09:47:30.742Z,1011.79
2018-12-20T09:48:30.205Z,1011.79
2018-12-20T09:49:30.171Z,1011.76
2018-12-20T09:50:30.132Z,1011.73
2018-12-20T09:51:30.156Z,1011.74
2018-12-20T09:52:30.125Z,1011.71
2018-12-20T09:53:30.041Z,1011.72
2018-12-20T09:54:30.013Z,1011.70
2018-12-20T09:55:29.978Z,1011.69
2018-12-20T09:56:29.955Z,1011.68
2018-12-20T09:57:29.963Z,1011.72
2018-12-20T09:58:29.922Z,1011.66
2018-12-20T09:59:29.880Z,1011.64
2018-12-20T10:00:29.823Z,1011.63
2018-12-20T10:01:29.783Z,1011.62
2018-12-20T10:02:30.745Z,1011.56
2018-12-20T10:03:29.852Z,1011.55
2018-12-20T10:04:29.694Z,1011.59
2018-12-20T10:05:30.239Z,1011.56
2018-12-20T10:06:30.248Z,1011.55
2018-12-20T10:07:29.813Z,1011.54
2018-12-20T10:08:30.242Z,1011.53
2018-12-20T10:09:31.527Z,1011.52
2018-12-20T10:10:29.494Z,1011.54
2018-12-20T10:11:29.475Z,1011.55
2018-12-20T10:12:29.475Z,1011.52
2018-12-20T10:13:29.487Z,1011.51
2018-12-20T10:14:29.418Z,1011.46
2018-12-20T10:15:29.335Z,1011.48
2018-12-20T10:16:29.307Z,1011.50
2018-12-20T10:17:29.276Z,1011.47
2018-12-20T10:18:29.287Z,1011.47
2018-12-20T10:19:29.254Z,1011.47
2018-12-20T10:20:29.183Z,1011.41
2018-12-20T10:21:29.149Z,1011.43
2018-12-20T10:22:29.112Z,1011.42
2018-12-20T10:23:29.092Z,1011.42
2018-12-20T10:24:29.094Z,1011.43
2018-12-20T10:25:29.024Z,1011.41
2018-12-20T10:26:28.992Z,1011.38
2018-12-20T10:27:31.571Z,1011.35
2018-12-20T10:28:28.934Z,1011.34
2018-12-20T10:29:28.943Z,1011.36
2018-12-20T10:30:28.865Z,1011.33
2018-12-20T10:31:28.831Z,1011.32
2018-12-20T10:32:28.803Z,1011.34
2018-12-20T10:33:28.766Z,1011.33
2018-12-20T10:34:28.778Z,1011.31
2018-12-20T10:35:28.711Z,1011.28
2018-12-20T10:36:28.680Z,1011.28
2018-12-20T10:37:28.641Z,1011.27
2018-12-20T10:38:28.724Z,1011.29
2018-12-20T10:39:28.628Z,1011.28
2018-12-20T10:40:28.551Z,1011.27
2018-12-20T10:41:28.525Z,1011.22
2018-12-20T10:42:28.510Z,1011.15
2018-12-20T10:43:28.463Z,1011.18
2018-12-20T10:44:28.476Z,1011.17
2018-12-20T10:45:28.396Z,1011.20
2018-12-20T10:46:28.367Z,1011.15
2018-12-20T10:47:29.113Z,1011.14
2018-12-20T10:48:28.310Z,1011.10
2018-12-20T10:49:28.811Z,1011.10
2018-12-20T10:50:28.245Z,1011.04
2018-12-20T10:51:28.217Z,1011.02
2018-12-20T10:52:28.750Z,1011.03
2018-12-20T10:53:28.144Z,1011.02
2018-12-20T10:54:28.317Z,1011.00
2018-12-20T10:55:28.085Z,1011.00
2018-12-20T10:56:28.753Z,1010.96
2018-12-20T10:57:28.025Z,1010.94
2018-12-20T10:58:28.013Z,1010.88
2018-12-20T10:59:28.331Z,1010.92
2018-12-20T11:00:27.929Z,1010.93
2018-12-20T11:01:27.900Z,1010.94
2018-12-20T11:02:27.873Z,1010.93
2018-12-20T11:03:28.760Z,1010.95
2018-12-20T11:04:27.853Z,1010.94
2018-12-20T11:05:28.324Z,1010.93
2018-12-20T11:06:27.750Z,1010.93
2018-12-20T11:07:27.732Z,1010.94
2018-12-20T11:08:27.682Z,1010.91
2018-12-20T11:09:27.650Z,1010.96
2018-12-20T11:10:27.689Z,1010.91
2018-12-20T11:11:27.608Z,1010.88
2018-12-20T11:12:27.560Z,1010.86
2018-12-20T11:13:27.522Z,1010.88
2018-12-20T11:14:27.594Z,1010.88
2018-12-20T11:15:27.560Z,1010.84
2018-12-20T11:16:27.478Z,1010.88
2018-12-20T11:17:27.403Z,1010.87
2018-12-20T11:18:28.259Z,1010.86
2018-12-20T11:19:27.342Z,1010.85
2018-12-20T11:20:27.306Z,1010.90
2018-12-20T11:21:27.320Z,1010.81
2018-12-20T11:22:27.249Z,1010.79
2018-12-20T11:23:27.217Z,1010.82
2018-12-20T11:24:27.189Z,1010.77
2018-12-20T11:25:27.151Z,1010.78
2018-12-20T11:26:27.187Z,1010.79
2018-12-20T11:27:27.094Z,1010.79
2018-12-20T11:28:27.060Z,1010.73
2018-12-20T11:29:27.033Z,1010.78
2018-12-20T11:30:27.006Z,1010.77
2018-12-20T11:31:27.017Z,1010.79
2018-12-20T11:32:26.933Z,1010.76
2018-12-20T11:33:26.911Z,1010.74
2018-12-20T11:34:26.948Z,1010.77
2018-12-20T11:35:26.855Z,1010.77
2018-12-20T11:36:26.897Z,1010.76
2018-12-20T11:37:26.780Z,1010.71
2018-12-20T11:38:26.744Z,1010.76
2018-12-20T11:39:27.256Z,1010.73
2018-12-20T11:40:26.738Z,1010.75
2018-12-20T11:41:26.839Z,1010.76
2018-12-20T11:42:26.628Z,1010.71
2018-12-20T11:43:26.593Z,1010.70
2018-12-20T11:44:26.627Z,1010.70
2018-12-20T11:45:26.534Z,1010.71
2018-12-20T11:46:26.547Z,1010.69
2018-12-20T11:47:26.465Z,1010.76
2018-12-20T11:48:26.435Z,1010.76
2018-12-20T11:49:26.815Z,1010.78
2018-12-20T11:50:27.261Z,1010.75
2018-12-20T11:51:27.266Z,1010.77
2018-12-20T11:52:26.309Z,1010.77
2018-12-20T11:53:26.283Z,1010.79
2018-12-20T11:54:26.397Z,1010.75
2018-12-20T11:55:26.216Z,1010.74
2018-12-20T11:56:26.189Z,1010.74
2018-12-20T11:57:26.764Z,1010.78
2018-12-20T11:58:26.270Z,1010.75
2018-12-20T11:59:26.092Z,1010.75
2018-12-20T12:00:26.068Z,1010.68
2018-12-20T12:01:26.033Z,1010.67
2018-12-20T12:02:26.772Z,1010.64
2018-12-20T12:03:26.068Z,1010.65
2018-12-20T12:04:26.029Z,1010.64
2018-12-20T12:05:25.929Z,1010.65